createdAt,value
2018-12-06T00:00:53.041Z,26.63
2018-12-06T00:03:20.496Z,25.03
2018-12-06T00:05:47.885Z,27.80
2018-12-06T00:08:17.082Z,28.07
2018-12-06T00:10:44.594Z,26.83
2018-12-06T00:13:12.003Z,26.20
2018-12-06T00:15:39.420Z,26.00
2018-12-06T00:18:06.966Z,25.53
2018-12-06T00:20:34.333Z,26.00
2018-12-06T00:23:01.735Z,25.90
2018-12-06T00:25:29.162Z,25.13
2018-12-06T00:27:56.609Z,25.70
2018-12-06T00:30:34.711Z,26.50
2018-12-06T00:33:02.915Z,25.77
2018-12-06T00:35:30.356Z,25.10
2018-12-06T00:37:57.831Z,26.53
2018-12-06T00:40:25.226Z,25.30
2018-12-06T00:42:52.673Z,25.30
2018-12-06T00:45:20.154Z,23.97
2018-12-06T00:47:47.614Z,27.63
2018-12-06T00:50:14.982Z,27.07
2018-12-06T00:52:42.372Z,25.27
2018-12-06T00:55:09.901Z,26.77
2018-12-06T00:57:37.340Z,25.57
2018-12-06T01:00:07.230Z,23.00
2018-12-06T01:02:34.629Z,24.47
2018-12-06T01:05:02.079Z,24.10
2018-12-06T01:07:29.539Z,26.87
2018-12-06T01:09:57.026Z,26.43
2018-12-06T01:12:24.516Z,24.53
2018-12-06T01:14:51.922Z,24.60
2018-12-06T01:17:19.346Z,26.33
2018-12-06T01:19:46.787Z,25.47
2018-12-06T01:22:14.170Z,25.70
2018-12-06T01:24:41.585Z,24.43
2018-12-06T01:27:08.976Z,25.13
2018-12-06T01:29:36.377Z,26.73
2018-12-06T01:32:03.798Z,26.10
2018-12-06T01:34:31.189Z,25.13
2018-12-06T01:36:58.584Z,24.77
2018-12-06T01:39:25.976Z,24.60
2018-12-06T01:41:53.451Z,25.57
2018-12-06T01:44:20.840Z,25.50
2018-12-06T01:46:48.245Z,25.37
2018-12-06T01:49:15.630Z,25.10
2018-12-06T01:51:43.056Z,24.13
2018-12-06T01:54:10.542Z,24.70
2018-12-06T01:56:37.971Z,24.83
2018-12-06T01:59:05.363Z,23.17
2018-12-06T02:01:32.768Z,26.03
2018-12-06T02:04:00.255Z,24.20
2018-12-06T02:06:27.659Z,24.60
2018-12-06T02:08:55.143Z,24.27
2018-12-06T02:11:22.762Z,23.30
2018-12-06T02:13:50.151Z,25.03
2018-12-06T02:16:17.536Z,23.87
2018-12-06T02:18:45.125Z,22.93
2018-12-06T02:21:12.571Z,23.73
2018-12-06T02:23:39.959Z,23.50
2018-12-06T02:26:07.359Z,24.00
2018-12-06T02:28:34.970Z,24.40
2018-12-06T02:31:02.352Z,25.30
2018-12-06T02:33:29.762Z,23.03
2018-12-06T02:35:57.159Z,23.57
2018-12-06T02:38:24.658Z,24.70
2018-12-06T02:40:52.141Z,25.93
2018-12-06T02:43:19.650Z,25.33
2018-12-06T02:45:47.125Z,25.40
2018-12-06T02:48:14.527Z,24.67
2018-12-06T02:50:41.938Z,24.50
2018-12-06T02:53:09.394Z,24.17
2018-12-06T02:55:36.876Z,24.90
2018-12-06T02:58:04.446Z,26.90
2018-12-06T03:00:31.855Z,24.07
2018-12-06T03:02:59.321Z,24.20
2018-12-06T03:05:26.770Z,23.77
2018-12-06T03:07:54.226Z,25.33
2018-12-06T03:10:21.626Z,24.60
2018-12-06T03:12:49.046Z,25.53
2018-12-06T03:15:16.525Z,25.57
2018-12-06T03:17:43.913Z,24.90
2018-12-06T03:20:11.385Z,24.90
2018-12-06T03:22:38.866Z,24.47
2018-12-06T03:25:06.572Z,26.20
2018-12-06T03:27:33.973Z,25.37
2018-12-06T03:30:01.474Z,24.70
2018-12-06T03:32:28.870Z,25.00
2018-12-06T03:34:56.349Z,25.87
2018-12-06T03:37:23.874Z,25.50
2018-12-06T03:39:51.343Z,24.53
2018-12-06T03:42:18.885Z,24.37
2018-12-06T03:44:46.337Z,23.00
2018-12-06T03:47:13.801Z,23.37
2018-12-06T03:49:41.208Z,25.00
2018-12-06T03:52:08.680Z,23.50
2018-12-06T03:54:36.177Z,23.80
2018-12-06T03:57:03.765Z,23.70
2018-12-06T03:59:31.180Z,23.10
2018-12-06T04:01:58.609Z,23.73
2018-12-06T04:04:26.089Z,23.40
2018-12-06T04:06:53.498Z,24.10
2018-12-06T04:09:20.960Z,22.33
2018-12-06T04:11:48.402Z,22.27
2018-12-06T04:14:15.781Z,21.40
2018-12-06T04:16:43.180Z,22.17
2018-12-06T04:19:10.686Z,23.30
2018-12-06T04:21:38.088Z,21.97
2018-12-06T04:24:05.500Z,22.37
2018-12-06T04:26:32.897Z,21.20
2018-12-06T04:29:00.307Z,23.13
2018-12-06T04:31:27.702Z,22.03
2018-12-06T04:33:55.137Z,21.70
2018-12-06T04:36:22.610Z,21.40
2018-12-06T04:38:50.005Z,21.27
2018-12-06T04:41:17.510Z,21.37
2018-12-06T04:43:44.944Z,21.90
2018-12-06T04:46:12.446Z,21.43
2018-12-06T04:48:39.913Z,22.20
2018-12-06T04:51:07.332Z,21.60
2018-12-06T04:53:34.805Z,21.13
2018-12-06T04:56:02.301Z,22.37
2018-12-06T04:58:29.770Z,22.20
2018-12-06T05:00:57.167Z,20.77
2018-12-06T05:03:24.650Z,19.97
2018-12-06T05:05:52.045Z,20.00
2018-12-06T05:08:19.447Z,19.40
2018-12-06T05:10:46.922Z,20.27
2018-12-06T05:13:14.408Z,20.80
2018-12-06T05:15:41.846Z,18.50
2018-12-06T05:18:09.234Z,19.33
2018-12-06T05:20:36.711Z,20.10
2018-12-06T05:23:04.263Z,19.80
2018-12-06T05:25:31.678Z,20.20
2018-12-06T05:27:59.074Z,20.70
2018-12-06T05:30:26.463Z,19.33
2018-12-06T05:32:53.922Z,21.77
2018-12-06T05:35:21.329Z,18.40
2018-12-06T05:37:48.807Z,19.37
2018-12-06T05:40:16.221Z,17.63
2018-12-06T05:42:43.652Z,20.40
2018-12-06T05:45:11.053Z,19.40
2018-12-06T05:47:38.465Z,21.07
2018-12-06T05:50:06.162Z,20.23
2018-12-06T05:52:33.606Z,20.27
2018-12-06T05:55:01.179Z,20.63
2018-12-06T05:57:28.566Z,21.40
2018-12-06T05:59:55.968Z,20.43
2018-12-06T06:02:23.356Z,21.57
2018-12-06T06:04:50.876Z,21.70
2018-12-06T06:07:18.340Z,21.63
2018-12-06T06:09:45.734Z,21.80
2018-12-06T06:12:13.126Z,22.73
2018-12-06T06:14:40.558Z,22.80
2018-12-06T06:17:08.007Z,21.83
2018-12-06T06:19:35.547Z,21.53
2018-12-06T06:22:02.944Z,21.77
2018-12-06T06:24:30.345Z,21.37
2018-12-06T06:26:58.704Z,22.20
2018-12-06T06:29:26.221Z,21.80
2018-12-06T06:31:53.620Z,21.27
2018-12-06T06:34:21.089Z,22.70
2018-12-06T06:36:48.558Z,21.83
2018-12-06T06:39:15.953Z,20.27
2018-12-06T06:41:43.473Z,22.27
2018-12-06T06:44:10.939Z,22.10
2018-12-06T06:46:38.458Z,21.77
2018-12-06T06:49:13.559Z,22.97
2018-12-06T06:51:35.354Z,21.90
2018-12-06T06:54:02.751Z,22.50
2018-12-06T06:56:30.146Z,21.23
2018-12-06T06:58:58.599Z,21.40
2018-12-06T07:01:26.252Z,22.63
2018-12-06T07:03:53.778Z,21.33
2018-12-06T07:06:21.252Z,21.77
2018-12-06T07:08:48.667Z,21.73
2018-12-06T07:11:16.062Z,20.97
2018-12-06T07:13:43.480Z,22.50
2018-12-06T07:16:10.997Z,22.77
2018-12-06T07:18:38.377Z,23.60
2018-12-06T07:21:05.848Z,24.77
2018-12-06T07:23:33.298Z,24.60
2018-12-06T07:26:00.786Z,22.73
2018-12-06T07:28:28.245Z,23.40
2018-12-06T07:30:55.643Z,23.60
2018-12-06T07:33:23.154Z,25.50
2018-12-06T07:35:50.646Z,23.80
2018-12-06T07:38:18.128Z,23.80
2018-12-06T07:40:45.522Z,23.97
2018-12-06T07:43:12.904Z,24.00
2018-12-06T07:45:40.381Z,25.57
2018-12-06T07:48:07.772Z,22.43
2018-12-06T07:50:35.167Z,24.10
2018-12-06T07:53:02.637Z,26.07
2018-12-06T07:55:30.041Z,25.27
2018-12-06T07:57:57.422Z,24.00
2018-12-06T08:00:24.945Z,23.23
2018-12-06T08:02:52.417Z,24.20
2018-12-06T08:05:19.890Z,24.60
2018-12-06T08:07:47.337Z,23.67
2018-12-06T08:10:14.781Z,24.60
2018-12-06T08:12:42.212Z,23.83
2018-12-06T08:15:09.658Z,22.93
2018-12-06T08:17:37.111Z,24.50
2018-12-06T08:20:05.190Z,23.77
2018-12-06T08:22:32.598Z,23.40
2018-12-06T08:25:00.038Z,22.17
2018-12-06T08:27:27.622Z,22.90
2018-12-06T08:29:55.025Z,24.67
2018-12-06T08:32:22.497Z,23.50
2018-12-06T08:34:49.886Z,22.00
2018-12-06T08:37:17.325Z,23.43
2018-12-06T08:39:44.708Z,23.60
2018-12-06T08:42:12.099Z,24.83
2018-12-06T08:44:39.498Z,23.37
2018-12-06T08:47:07.009Z,24.07
2018-12-06T08:49:34.529Z,23.00
2018-12-06T08:52:01.917Z,22.47
2018-12-06T08:54:29.313Z,23.10
2018-12-06T08:56:56.790Z,24.63
2018-12-06T08:59:24.212Z,23.73
2018-12-06T09:01:51.724Z,23.90
2018-12-06T09:04:19.215Z,26.80
2018-12-06T09:06:46.604Z,23.37
2018-12-06T09:09:14.005Z,23.27
2018-12-06T09:11:41.406Z,23.90
2018-12-06T09:14:08.793Z,23.50
2018-12-06T09:16:36.269Z,22.23
2018-12-06T09:19:03.801Z,24.23
2018-12-06T09:21:31.197Z,25.27
2018-12-06T09:23:58.591Z,24.50
2018-12-06T09:26:26.082Z,25.23
2018-12-06T09:28:53.467Z,24.63
2018-12-06T09:31:20.981Z,25.20
2018-12-06T09:34:01.104Z,25.07
2018-12-06T09:36:28.501Z,24.67
2018-12-06T09:38:56.041Z,25.37
2018-12-06T09:41:23.517Z,25.27
2018-12-06T09:43:50.914Z,26.60
2018-12-06T09:46:18.388Z,25.27
2018-12-06T09:48:45.865Z,26.47
2018-12-06T09:51:13.259Z,25.40
2018-12-06T09:53:40.781Z,27.27
2018-12-06T09:56:08.175Z,25.13
2018-12-06T09:58:35.638Z,25.20
2018-12-06T10:01:03.077Z,25.23
2018-12-06T10:03:30.545Z,24.33
2018-12-06T10:05:57.939Z,23.97
2018-12-06T10:08:25.410Z,24.10
2018-12-06T10:10:52.805Z,26.03
2018-12-06T10:13:20.275Z,24.57
2018-12-06T10:15:47.719Z,25.73
2018-12-06T10:18:15.193Z,26.03
2018-12-06T10:20:42.585Z,24.63
2018-12-06T10:23:09.973Z,24.80
2018-12-06T10:25:37.413Z,25.60
2018-12-06T10:28:04.803Z,25.17
2018-12-06T10:30:32.188Z,25.60
2018-12-06T10:32:59.658Z,24.27
2018-12-06T10:35:27.129Z,23.60
2018-12-06T10:37:54.513Z,23.80
2018-12-06T10:40:21.905Z,23.77
2018-12-06T10:42:49.387Z,22.70
2018-12-06T10:45:17.050Z,24.17
2018-12-06T10:47:44.526Z,21.53
2018-12-06T10:50:12.224Z,22.70
2018-12-06T10:52:39.690Z,23.13
2018-12-06T10:55:07.274Z,21.60
2018-12-06T10:57:34.679Z,22.57
2018-12-06T11:00:02.104Z,22.63
2018-12-06T11:02:31.449Z,22.87
2018-12-06T11:04:58.965Z,22.77
2018-12-06T11:07:55.956Z,24.27
2018-12-06T11:10:23.349Z,21.13
2018-12-06T11:12:50.746Z,23.73
2018-12-06T11:15:18.133Z,24.00
2018-12-06T11:17:45.529Z,23.70
2018-12-06T11:20:12.963Z,23.50
2018-12-06T11:22:40.429Z,24.57
2018-12-06T11:25:07.901Z,24.93
2018-12-06T11:27:35.288Z,24.57
2018-12-06T11:30:02.976Z,23.87
2018-12-06T11:32:30.374Z,22.70
2018-12-06T11:34:57.769Z,23.63
2018-12-06T11:37:25.237Z,22.73
2018-12-06T11:39:52.634Z,23.70
2018-12-06T11:42:20.053Z,23.17
2018-12-06T11:44:47.491Z,22.00
2018-12-06T11:47:14.890Z,23.57
2018-12-06T11:49:42.277Z,21.23
2018-12-06T11:52:09.720Z,20.17
2018-12-06T11:54:37.105Z,20.70
2018-12-06T11:57:04.546Z,25.73
2018-12-06T11:59:32.037Z,23.47
2018-12-06T12:01:59.562Z,18.90
2018-12-06T12:04:27.020Z,18.00
2018-12-06T12:06:54.414Z,16.53
2018-12-06T12:09:21.882Z,18.50
2018-12-06T12:11:49.277Z,23.03
2018-12-06T12:14:16.665Z,18.10
2018-12-06T12:16:44.060Z,17.20
2018-12-06T12:19:11.523Z,16.90
2018-12-06T12:21:38.921Z,16.90
2018-12-06T12:24:06.313Z,16.43
2018-12-06T12:26:33.786Z,18.23
2018-12-06T12:29:01.251Z,17.27
2018-12-06T12:31:28.677Z,19.10
2018-12-06T12:33:56.074Z,19.23
2018-12-06T12:36:23.471Z,19.03
2018-12-06T12:38:50.869Z,17.97
2018-12-06T12:41:18.270Z,17.73
2018-12-06T12:43:45.749Z,17.30
2018-12-06T12:46:13.152Z,19.40
2018-12-06T12:48:40.622Z,16.20
2018-12-06T12:51:08.094Z,20.00
2018-12-06T12:53:35.574Z,16.60
2018-12-06T12:56:03.092Z,19.13
2018-12-06T12:58:30.477Z,17.07
2018-12-06T13:00:57.860Z,18.53
2018-12-06T13:03:25.340Z,20.97
2018-12-06T13:05:52.812Z,18.77
2018-12-06T13:08:20.208Z,20.13
2018-12-06T13:10:47.654Z,19.43
2018-12-06T13:13:15.040Z,17.90
2018-12-06T13:15:42.505Z,22.63
2018-12-06T13:18:09.991Z,20.40
2018-12-06T13:20:37.513Z,19.13
2018-12-06T13:23:04.905Z,17.03
2018-12-06T13:25:32.301Z,16.13
2018-12-06T13:27:59.737Z,15.90
2018-12-06T13:30:27.173Z,21.93
2018-12-06T13:32:54.662Z,16.23
2018-12-06T13:35:22.057Z,15.10
2018-12-06T13:37:49.453Z,17.83
2018-12-06T13:40:17.098Z,14.60
2018-12-06T13:42:44.537Z,14.50
2018-12-06T13:45:11.938Z,22.80
2018-12-06T13:47:39.331Z,15.73
2018-12-06T13:50:07.234Z,17.43
2018-12-06T13:52:34.628Z,17.27
2018-12-06T13:55:02.148Z,14.23
2018-12-06T13:57:29.587Z,14.37
2018-12-06T13:59:57.060Z,12.73
2018-12-06T14:02:24.534Z,14.87
2018-12-06T14:04:52.002Z,13.53
2018-12-06T14:07:19.518Z,14.10
2018-12-06T14:09:46.958Z,13.60
2018-12-06T14:12:14.428Z,13.00
2018-12-06T14:14:41.834Z,14.40
2018-12-06T14:17:09.228Z,19.07
2018-12-06T14:19:36.746Z,12.63
2018-12-06T14:22:04.185Z,13.93
2018-12-06T14:24:31.581Z,14.47
2018-12-06T14:26:59.018Z,12.83
2018-12-06T14:29:26.454Z,12.13
2018-12-06T14:31:53.855Z,18.23
2018-12-06T14:34:21.254Z,13.53
2018-12-06T14:37:01.641Z,14.07
2018-12-06T14:39:18.034Z,14.20
2018-12-06T14:41:45.425Z,12.53
2018-12-06T14:44:12.838Z,12.37
2018-12-06T14:46:40.349Z,12.17
2018-12-06T14:49:07.764Z,12.30
2018-12-06T14:51:35.264Z,12.73
2018-12-06T14:54:02.657Z,12.50
2018-12-06T14:56:30.061Z,12.70
2018-12-06T14:58:57.451Z,11.93
2018-12-06T15:01:24.897Z,13.10
2018-12-06T15:03:52.711Z,12.40
2018-12-06T15:06:20.251Z,12.57
2018-12-06T15:08:47.881Z,13.00
2018-12-06T15:11:15.281Z,13.37
2018-12-06T15:13:42.691Z,12.70
2018-12-06T15:16:10.121Z,11.93
2018-12-06T15:18:37.578Z,13.13
2018-12-06T15:21:05.071Z,11.47
2018-12-06T15:23:32.505Z,12.90
2018-12-06T15:25:59.901Z,14.10
2018-12-06T15:28:27.374Z,13.17
2018-12-06T15:30:54.810Z,14.43
2018-12-06T15:33:22.225Z,12.47
2018-12-06T15:35:49.628Z,12.90
2018-12-06T15:38:17.101Z,13.30
2018-12-06T15:40:44.498Z,12.60
2018-12-06T15:43:11.937Z,13.30
2018-12-06T15:45:39.390Z,12.80
2018-12-06T15:48:06.793Z,11.40
2018-12-06T15:50:34.278Z,11.80
2018-12-06T15:53:03.751Z,11.63
2018-12-06T15:55:31.199Z,11.83
2018-12-06T15:57:58.572Z,11.30
2018-12-06T16:00:25.985Z,10.90
2018-12-06T16:02:53.386Z,11.07
2018-12-06T16:05:20.781Z,12.63
2018-12-06T16:07:48.342Z,10.47
2018-12-06T16:10:16.028Z,11.53
2018-12-06T16:12:43.641Z,14.13
2018-12-06T16:15:11.283Z,11.97
2018-12-06T16:17:38.677Z,12.40
2018-12-06T16:20:07.807Z,11.13
2018-12-06T16:22:35.196Z,12.97
2018-12-06T16:25:02.624Z,12.70
2018-12-06T16:27:30.082Z,11.50
2018-12-06T16:29:57.509Z,11.77
2018-12-06T16:32:24.969Z,13.00
2018-12-06T16:34:52.438Z,11.93
2018-12-06T16:37:19.931Z,11.63
2018-12-06T16:39:47.495Z,12.60
2018-12-06T16:42:14.915Z,12.80
2018-12-06T16:44:42.347Z,12.20
2018-12-06T16:47:09.767Z,12.17
2018-12-06T16:49:37.421Z,12.90
2018-12-06T16:52:05.209Z,11.37
2018-12-06T16:54:32.649Z,12.50
2018-12-06T16:57:00.234Z,11.67
2018-12-06T16:59:27.628Z,11.87
2018-12-06T17:01:55.081Z,12.07
2018-12-06T17:04:22.524Z,14.87
2018-12-06T17:06:49.996Z,10.43
2018-12-06T17:09:17.472Z,10.80
2018-12-06T17:11:44.932Z,11.03
2018-12-06T17:14:12.532Z,12.17
2018-12-06T17:16:40.021Z,13.27
2018-12-06T17:19:07.409Z,12.30
2018-12-06T17:21:34.882Z,10.63
2018-12-06T17:24:02.517Z,11.80
2018-12-06T17:26:29.989Z,11.00
2018-12-06T17:28:57.370Z,10.53
2018-12-06T17:31:25.030Z,10.90
2018-12-06T17:33:52.518Z,11.60
2018-12-06T17:36:19.923Z,12.30
2018-12-06T17:38:47.348Z,15.13
2018-12-06T17:41:14.783Z,12.30
2018-12-06T17:43:42.172Z,12.50
2018-12-06T17:46:09.656Z,12.33
2018-12-06T17:48:37.042Z,11.73
2018-12-06T17:51:04.481Z,11.17
2018-12-06T17:53:31.869Z,10.20
2018-12-06T17:55:59.259Z,10.10
2018-12-06T17:58:26.663Z,10.70
2018-12-06T18:00:54.101Z,10.60
2018-12-06T18:03:21.603Z,11.33
2018-12-06T18:05:49.106Z,11.07
2018-12-06T18:08:16.585Z,10.23
2018-12-06T18:10:43.982Z,11.27
2018-12-06T18:13:11.416Z,10.77
2018-12-06T18:15:38.845Z,9.60
2018-12-06T18:18:06.238Z,12.60
2018-12-06T18:20:33.631Z,11.13
2018-12-06T18:23:01.025Z,11.10
2018-12-06T18:25:28.493Z,10.70
2018-12-06T18:27:56.002Z,10.63
2018-12-06T18:30:23.402Z,10.87
2018-12-06T18:32:50.785Z,10.40
2018-12-06T18:35:18.364Z,10.83
2018-12-06T18:37:45.948Z,11.37
2018-12-06T18:40:13.377Z,11.10
2018-12-06T18:42:40.944Z,10.83
2018-12-06T18:45:08.565Z,10.17
2018-12-06T18:47:35.991Z,11.07
2018-12-06T18:50:03.772Z,12.43
2018-12-06T18:52:31.162Z,12.40
2018-12-06T18:54:58.607Z,11.83
2018-12-06T18:57:26.505Z,11.93
2018-12-06T18:59:53.886Z,11.23
2018-12-06T19:02:21.282Z,14.83
2018-12-06T19:04:48.700Z,11.27
2018-12-06T19:07:16.178Z,11.60
2018-12-06T19:09:43.617Z,11.73
2018-12-06T19:12:11.016Z,11.90
2018-12-06T19:14:38.538Z,12.87
2018-12-06T19:17:05.959Z,12.23
2018-12-06T19:19:33.423Z,12.30
2018-12-06T19:22:00.953Z,12.87
2018-12-06T19:24:28.453Z,12.70
2018-12-06T19:26:55.865Z,13.20
2018-12-06T19:29:23.275Z,13.60
2018-12-06T19:31:50.668Z,14.20
2018-12-06T19:34:18.055Z,13.00
2018-12-06T19:36:45.450Z,13.67
2018-12-06T19:39:12.859Z,12.50
2018-12-06T19:41:40.246Z,13.30
2018-12-06T19:44:07.764Z,12.70
2018-12-06T19:46:35.309Z,13.20
2018-12-06T19:49:02.718Z,14.27
2018-12-06T19:51:30.185Z,13.40
2018-12-06T19:53:57.651Z,12.53
2018-12-06T19:56:25.059Z,12.97
2018-12-06T19:58:52.481Z,14.10
2018-12-06T20:01:19.889Z,13.77
2018-12-06T20:03:47.332Z,13.17
2018-12-06T20:06:14.774Z,12.50
2018-12-06T20:08:42.452Z,12.50
2018-12-06T20:11:09.907Z,13.00
2018-12-06T20:13:37.402Z,13.37
2018-12-06T20:16:04.920Z,12.70
2018-12-06T20:18:32.441Z,11.43
2018-12-06T20:20:59.851Z,11.63
2018-12-06T20:23:27.309Z,12.50
2018-12-06T20:25:54.715Z,11.77
2018-12-06T20:28:26.412Z,11.00
2018-12-06T20:30:51.622Z,12.00
2018-12-06T20:33:19.085Z,11.70
2018-12-06T20:35:46.612Z,12.00
2018-12-06T20:38:14.084Z,11.70
2018-12-06T20:40:41.622Z,12.47
2018-12-06T20:43:09.058Z,11.03
2018-12-06T20:45:37.610Z,10.83
2018-12-06T20:48:05.293Z,11.20
2018-12-06T20:50:32.764Z,11.50
2018-12-06T20:53:00.200Z,11.73
2018-12-06T20:55:27.649Z,12.00
2018-12-06T20:57:55.908Z,12.37
2018-12-06T21:00:23.395Z,12.10
2018-12-06T21:02:50.842Z,12.83
2018-12-06T21:05:18.279Z,12.27
2018-12-06T21:07:45.804Z,12.37
2018-12-06T21:10:13.251Z,15.30
2018-12-06T21:12:40.702Z,15.47
2018-12-06T21:15:08.143Z,15.80
2018-12-06T21:17:35.616Z,15.37
2018-12-06T21:20:03.396Z,14.87
2018-12-06T21:22:30.810Z,12.60
2018-12-06T21:24:58.225Z,11.50
2018-12-06T21:27:26.514Z,11.80
2018-12-06T21:29:53.985Z,11.83
2018-12-06T21:32:21.390Z,11.87
2018-12-06T21:34:48.852Z,11.77
2018-12-06T21:37:16.246Z,11.80
2018-12-06T21:39:43.633Z,11.63
2018-12-06T21:42:11.074Z,10.77
2018-12-06T21:44:38.464Z,12.30
2018-12-06T21:47:05.915Z,11.37
2018-12-06T21:49:33.362Z,10.70
2018-12-06T21:52:00.749Z,11.30
2018-12-06T21:54:28.156Z,11.77
2018-12-06T21:56:55.550Z,11.80
2018-12-06T21:59:22.942Z,11.97
2018-12-06T22:01:54.223Z,11.80
2018-12-06T22:04:21.609Z,12.23
2018-12-06T22:06:49.007Z,12.10
2018-12-06T22:09:16.410Z,11.40
2018-12-06T22:11:43.825Z,12.10
2018-12-06T22:14:11.215Z,12.90
2018-12-06T22:16:38.614Z,12.30
2018-12-06T22:19:06.010Z,12.03
2018-12-06T22:21:33.410Z,12.63
2018-12-06T22:24:00.803Z,13.13
2018-12-06T22:26:28.217Z,13.17
2018-12-06T22:28:55.601Z,13.10
2018-12-06T22:31:23.066Z,12.47
2018-12-06T22:33:50.511Z,12.60
2018-12-06T22:36:17.935Z,12.37
2018-12-06T22:38:45.424Z,12.10
2018-12-06T22:41:12.887Z,11.70
2018-12-06T22:43:40.278Z,12.00
2018-12-06T22:46:07.744Z,12.10
2018-12-06T22:48:35.140Z,12.60
2018-12-06T22:51:02.696Z,12.10
2018-12-06T22:53:30.172Z,11.93
2018-12-06T22:55:57.610Z,12.10
2018-12-06T22:58:25.089Z,11.90
2018-12-06T23:00:54.275Z,12.43
2018-12-06T23:03:22.585Z,11.87
2018-12-06T23:05:50.029Z,12.10
2018-12-06T23:08:17.426Z,11.50
2018-12-06T23:10:44.866Z,11.57
2018-12-06T23:13:12.257Z,11.77
2018-12-06T23:15:39.729Z,12.23
2018-12-06T23:18:07.121Z,11.90
2018-12-06T23:20:34.641Z,12.93
2018-12-06T23:23:02.045Z,11.97
2018-12-06T23:25:29.505Z,12.30
2018-12-06T23:27:56.903Z,11.90
2018-12-06T23:30:24.498Z,12.10
2018-12-06T23:32:51.966Z,13.53
2018-12-06T23:35:19.409Z,12.53
2018-12-06T23:37:46.806Z,11.83
2018-12-06T23:40:14.200Z,12.17
2018-12-06T23:42:41.589Z,12.97
2018-12-06T23:45:09.026Z,12.30
2018-12-06T23:47:36.417Z,12.20
2018-12-06T23:50:04.294Z,12.33
2018-12-06T23:52:31.685Z,12.40
2018-12-06T23:54:59.155Z,12.00
2018-12-06T23:57:26.545Z,10.80
2018-12-06T23:59:53.929Z,11.70
